Whitewood, VA (24657)

3:23 PM EST on February 10, 2016 (GMT -0500)
Jewell Ridge | | Change Station
CLOSE
Current Station
Personal Weather Station
Location: Jewell Ridge, VA
Elevation: 2986 ft
Nearby Weather Stations
Active Advisory: Winter Weather Advisory

Elev 2986 ft 37.20 °N, 81.78 °W | Updated 6 minutes ago

Overcast
Overcast
17.2 °F
Feels Like 5 °F
N
10.9
Wind Variable Wind from West

Today
High -- | Low -- °F
--% Chance of Precip.
Yesterday
High -- | Low -- °F
Precip. -- in
Pressure 29.85 in
Visibility 10.0 miles
Clouds Mostly Cloudy 2500 ft
Mostly Cloudy 3400 ft
Overcast 4100 ft
Windchill 5 °F
Dew Point 10 °F
Humidity 73%
Rainfall 0.00 in
Snow Depth Not available.
7:22 AM 6:01 PM
Waxing Crescent, 7% visible
METAR KJFZ 102015Z AUTO 30010G14KT 10SM BKN025 BKN034 OVC041 M09/M15 A2985 RMK AO2 T10861146
Pressure 29.85 in
Visibility 10.0 miles
Clouds Mostly Cloudy 2500 ft
Mostly Cloudy 3400 ft
Overcast 4100 ft
Windchill 5 °F
Dew Point 10 °F
Humidity 73%
Rainfall 0.00 in
Snow Depth Not available.
7:22 AM 6:01 PM
Waxing Crescent, 7% visible
METAR KJFZ 102015Z AUTO 30010G14KT 10SM BKN025 BKN034 OVC041 M09/M15 A2985 RMK AO2 T10861146

10-Day Weather Forecast

Almanac

Astronomy

Feb. 10, 2016 Rise Set
Actual Time
Civil Twilight
Nautical Twilight
Astronomical Twilight
Moon
Length of Visible Light
Length of Day
Tomorrow will be .
, % of the Moon is Illuminated

Today's Extremes

State Highs State Lows

Community

WunderPhotos

Upload Photos

1,891,942 photos uploaded!

WunderBlog® & News

Nearby

Air Quality

  Air Quality AQ Index Pollutant
Not available.

Snow Depth

Station Depth Elevation

Earthquake Activity

City Distance Mag. Time & Date
Minimum magnitude displayed is 2.5.

Coastal Water Temperatures

Place Temperature

Stations

Nearby Weather Stations

Station Location Temp. Windchill Dew Point Humidity Wind Precip. Elev Updated Type
                   

Watches & Warnings

Winter Weather Advisory
Issued: 1:04 PM EST Feb. 10, 2016 – National Weather Service

... Winter Weather Advisory remains in effect until 6 PM EST this
evening...

* hazard types... snow showers of varying intensity.

* Total snow accumulations from Monday night through today... 2
to 5 inches in southern Ohio... southern West Virginia and
southwest Virginia... 4 to 9 inches in portions of north
central West Virginia.

* Temperatures... in the lower 20s.

* Impacts... travel may be difficult at times. Visibilities will
be limited at times.

Precautionary/preparedness actions...

A Winter Weather Advisory for snow means that periods of snow
will cause primarily travel difficulties. Be prepared for snow
covered roads and limited visibilities... and use caution while
driving.

With the colder weather... have your vehicle equipped with
emergency supplies.